Terminal Aerodrome Forecast
Issued by NWS

Home | Current Version | Previous Version | Text Only | Print | Product List | Glossary Off
Versions: 1 2 3 4 5 6 7 8 9 10 11 12 13 14 15 16 17 18 19 20 21 22 23 24

000
FTUS43 KABR 181720
TAFATY
TAF
KATY 181720Z 1818/1918 22005KT P6SM -RA FEW021 OVC060
     FM182000 22014KT P6SM BKN080
     FM190500 36012KT P6SM OVC020
     FM190800 01012KT P6SM OVC008
     FM191700 03016G23KT P6SM OVC045=

USA.gov is the U.S. government's official web portal to all federal, state and local government web resources and services.